sensor_id;sensor_type;location;lat;lon;timestamp;P1;durP1;ratioP1;P2;durP2;ratioP2
54464;SDS011;40374;49.480;20.016;2022-11-18T00:01:18;49.42;;;19.85;;
54464;SDS011;40374;49.480;20.016;2022-11-18T00:03:48;54.10;;;20.42;;
54464;SDS011;40374;49.480;20.016;2022-11-18T00:06:17;36.70;;;15.52;;
54464;SDS011;40374;49.480;20.016;2022-11-18T00:08:47;67.45;;;26.30;;
54464;SDS011;40374;49.480;20.016;2022-11-18T00:11:19;48.92;;;17.67;;
54464;SDS011;40374;49.480;20.016;2022-11-18T00:14:10;41.95;;;16.35;;
54464;SDS011;40374;49.480;20.016;2022-11-18T00:16:52;43.90;;;16.73;;
54464;SDS011;40374;49.480;20.016;2022-11-18T00:19:25;37.55;;;15.32;;
54464;SDS011;40374;49.480;20.016;2022-11-18T00:21:55;200.40;;;50.05;;
54464;SDS011;40374;49.480;20.016;2022-11-18T00:24:23;94.60;;;29.58;;
54464;SDS011;40374;49.480;20.016;2022-11-18T00:26:52;82.40;;;29.30;;
54464;SDS011;40374;49.480;20.016;2022-11-18T00:29:20;33.22;;;15.95;;
54464;SDS011;40374;49.480;20.016;2022-11-18T00:31:48;31.02;;;15.73;;
54464;SDS011;40374;49.480;20.016;2022-11-18T00:34:16;52.85;;;19.75;;
54464;SDS011;40374;49.480;20.016;2022-11-18T00:36:44;40.13;;;16.83;;
54464;SDS011;40374;49.480;20.016;2022-11-18T00:39:13;43.33;;;18.58;;
54464;SDS011;40374;49.480;20.016;2022-11-18T00:41:43;26.48;;;12.93;;
54464;SDS011;40374;49.480;20.016;2022-11-18T00:44:29;55.13;;;20.92;;
54464;SDS011;40374;49.480;20.016;2022-11-18T00:46:57;184.05;;;53.85;;
54464;SDS011;40374;49.480;20.016;2022-11-18T00:49:24;60.33;;;22.80;;
54464;SDS011;40374;49.480;20.016;2022-11-18T00:51:52;46.13;;;18.67;;
54464;SDS011;40374;49.480;20.016;2022-11-18T00:54:19;37.92;;;15.65;;
54464;SDS011;40374;49.480;20.016;2022-11-18T00:56:47;102.47;;;33.45;;
54464;SDS011;40374;49.480;20.016;2022-11-18T00:59:14;41.13;;;18.60;;
54464;SDS011;40374;49.480;20.016;2022-11-18T01:01:42;37.63;;;16.55;;
54464;SDS011;40374;49.480;20.016;2022-11-18T01:04:10;33.75;;;16.27;;
54464;SDS011;40374;49.480;20.016;2022-11-18T01:06:38;43.55;;;18.80;;
54464;SDS011;40374;49.480;20.016;2022-11-18T01:09:05;30.05;;;15.20;;
54464;SDS011;40374;49.480;20.016;2022-11-18T01:11:33;92.78;;;34.83;;
54464;SDS011;40374;49.480;20.016;2022-11-18T01:14:19;38.50;;;16.15;;
54464;SDS011;40374;49.480;20.016;2022-11-18T01:16:46;42.05;;;19.85;;
54464;SDS011;40374;49.480;20.016;2022-11-18T01:19:17;45.53;;;22.05;;
54464;SDS011;40374;49.480;20.016;2022-11-18T01:21:45;40.75;;;20.58;;
54464;SDS011;40374;49.480;20.016;2022-11-18T01:24:12;46.15;;;22.52;;
54464;SDS011;40374;49.480;20.016;2022-11-18T01:26:40;45.00;;;21.58;;
54464;SDS011;40374;49.480;20.016;2022-11-18T01:29:07;48.28;;;23.23;;
54464;SDS011;40374;49.480;20.016;2022-11-18T01:31:36;45.55;;;19.60;;
54464;SDS011;40374;49.480;20.016;2022-11-18T01:34:23;42.67;;;19.30;;
54464;SDS011;40374;49.480;20.016;2022-11-18T01:36:51;37.30;;;17.80;;
54464;SDS011;40374;49.480;20.016;2022-11-18T01:39:18;38.47;;;17.58;;
54464;SDS011;40374;49.480;20.016;2022-11-18T01:41:46;37.65;;;18.10;;
54464;SDS011;40374;49.480;20.016;2022-11-18T01:47:17;35.45;;;16.85;;
54464;SDS011;40374;49.480;20.016;2022-11-18T01:49:45;37.60;;;17.35;;
54464;SDS011;40374;49.480;20.016;2022-11-18T01:52:13;34.42;;;17.33;;
54464;SDS011;40374;49.480;20.016;2022-11-18T01:54:41;36.10;;;17.08;;
54464;SDS011;40374;49.480;20.016;2022-11-18T01:57:15;32.30;;;15.90;;
54464;SDS011;40374;49.480;20.016;2022-11-18T01:59:48;31.13;;;15.50;;
54464;SDS011;40374;49.480;20.016;2022-11-18T02:02:20;35.33;;;16.63;;
54464;SDS011;40374;49.480;20.016;2022-11-18T02:04:49;35.42;;;18.42;;
54464;SDS011;40374;49.480;20.016;2022-11-18T02:07:19;38.40;;;18.02;;
54464;SDS011;40374;49.480;20.016;2022-11-18T02:09:48;39.08;;;18.77;;
54464;SDS011;40374;49.480;20.016;2022-11-18T02:12:19;38.70;;;19.63;;
54464;SDS011;40374;49.480;20.016;2022-11-18T02:14:46;42.45;;;18.63;;
54464;SDS011;40374;49.480;20.016;2022-11-18T02:31:22;35.97;;;16.30;;
54464;SDS011;40374;49.480;20.016;2022-11-18T02:34:15;29.23;;;14.38;;
54464;SDS011;40374;49.480;20.016;2022-11-18T02:36:52;28.75;;;14.43;;
54464;SDS011;40374;49.480;20.016;2022-11-18T02:39:30;26.55;;;13.65;;
54464;SDS011;40374;49.480;20.016;2022-11-18T02:42:03;25.38;;;12.65;;
54464;SDS011;40374;49.480;20.016;2022-11-18T02:44:35;28.02;;;14.15;;
54464;SDS011;40374;49.480;20.016;2022-11-18T02:47:08;29.85;;;13.63;;
54464;SDS011;40374;49.480;20.016;2022-11-18T02:49:45;52.60;;;21.95;;
54464;SDS011;40374;49.480;20.016;2022-11-18T02:52:17;34.63;;;15.70;;
54464;SDS011;40374;49.480;20.016;2022-11-18T02:54:47;30.20;;;15.18;;
54464;SDS011;40374;49.480;20.016;2022-11-18T02:57:17;28.80;;;14.45;;
54464;SDS011;40374;49.480;20.016;2022-11-18T02:59:47;30.73;;;17.10;;
54464;SDS011;40374;49.480;20.016;2022-11-18T03:02:15;34.90;;;17.20;;
54464;SDS011;40374;49.480;20.016;2022-11-18T03:04:45;32.33;;;16.02;;
54464;SDS011;40374;49.480;20.016;2022-11-18T03:07:18;29.48;;;15.43;;
54464;SDS011;40374;49.480;20.016;2022-11-18T03:09:56;32.90;;;15.88;;
54464;SDS011;40374;49.480;20.016;2022-11-18T03:12:38;36.10;;;15.55;;
54464;SDS011;40374;49.480;20.016;2022-11-18T03:15:25;35.55;;;17.00;;
54464;SDS011;40374;49.480;20.016;2022-11-18T03:20:55;38.58;;;18.80;;
54464;SDS011;40374;49.480;20.016;2022-11-18T03:26:08;38.72;;;18.05;;
54464;SDS011;40374;49.480;20.016;2022-11-18T03:28:52;33.83;;;16.38;;
54464;SDS011;40374;49.480;20.016;2022-11-18T03:31:43;33.20;;;15.98;;
54464;SDS011;40374;49.480;20.016;2022-11-18T03:34:22;33.80;;;16.70;;
54464;SDS011;40374;49.480;20.016;2022-11-18T03:36:55;33.42;;;16.38;;
54464;SDS011;40374;49.480;20.016;2022-11-18T03:39:27;34.63;;;16.58;;
54464;SDS011;40374;49.480;20.016;2022-11-18T03:42:12;32.35;;;15.55;;
54464;SDS011;40374;49.480;20.016;2022-11-18T03:44:55;33.90;;;15.98;;
54464;SDS011;40374;49.480;20.016;2022-11-18T03:47:38;33.55;;;16.15;;
54464;SDS011;40374;49.480;20.016;2022-11-18T03:50:18;29.20;;;15.35;;
54464;SDS011;40374;49.480;20.016;2022-11-18T03:52:59;30.35;;;14.27;;
54464;SDS011;40374;49.480;20.016;2022-11-18T03:55:30;34.75;;;16.40;;
54464;SDS011;40374;49.480;20.016;2022-11-18T03:58:24;30.92;;;15.07;;
54464;SDS011;40374;49.480;20.016;2022-11-18T04:01:02;30.33;;;15.68;;
54464;SDS011;40374;49.480;20.016;2022-11-18T04:03:35;33.25;;;15.90;;
54464;SDS011;40374;49.480;20.016;2022-11-18T04:09:14;34.08;;;16.20;;
54464;SDS011;40374;49.480;20.016;2022-11-18T04:11:47;34.75;;;16.35;;
54464;SDS011;40374;49.480;20.016;2022-11-18T04:14:35;33.78;;;16.60;;
54464;SDS011;40374;49.480;20.016;2022-11-18T04:17:04;39.53;;;18.67;;
54464;SDS011;40374;49.480;20.016;2022-11-18T04:19:36;37.75;;;18.85;;
54464;SDS011;40374;49.480;20.016;2022-11-18T04:22:04;45.53;;;18.98;;
54464;SDS011;40374;49.480;20.016;2022-11-18T04:24:32;56.63;;;20.20;;
54464;SDS011;40374;49.480;20.016;2022-11-18T04:27:00;48.17;;;21.52;;
54464;SDS011;40374;49.480;20.016;2022-11-18T04:29:29;38.75;;;20.40;;
54464;SDS011;40374;49.480;20.016;2022-11-18T04:31:58;40.53;;;19.27;;
54464;SDS011;40374;49.480;20.016;2022-11-18T04:34:28;47.45;;;20.83;;
54464;SDS011;40374;49.480;20.016;2022-11-18T04:36:56;41.88;;;21.08;;
54464;SDS011;40374;49.480;20.016;2022-11-18T04:39:25;48.20;;;24.42;;
54464;SDS011;40374;49.480;20.016;2022-11-18T04:41:52;51.00;;;23.65;;
54464;SDS011;40374;49.480;20.016;2022-11-18T04:46:50;47.08;;;21.85;;
54464;SDS011;40374;49.480;20.016;2022-11-18T04:49:18;50.90;;;24.35;;
54464;SDS011;40374;49.480;20.016;2022-11-18T04:51:46;43.38;;;21.85;;
54464;SDS011;40374;49.480;20.016;2022-11-18T04:54:15;47.05;;;21.58;;
54464;SDS011;40374;49.480;20.016;2022-11-18T04:56:43;46.03;;;22.50;;
54464;SDS011;40374;49.480;20.016;2022-11-18T04:59:17;48.75;;;22.65;;
54464;SDS011;40374;49.480;20.016;2022-11-18T05:01:47;44.05;;;21.08;;
54464;SDS011;40374;49.480;20.016;2022-11-18T05:04:17;45.40;;;21.88;;
54464;SDS011;40374;49.480;20.016;2022-11-18T05:06:49;52.05;;;22.08;;
54464;SDS011;40374;49.480;20.016;2022-11-18T05:09:17;48.88;;;23.40;;
54464;SDS011;40374;49.480;20.016;2022-11-18T05:11:46;51.20;;;24.50;;
54464;SDS011;40374;49.480;20.016;2022-11-18T05:17:00;44.90;;;20.23;;
54464;SDS011;40374;49.480;20.016;2022-11-18T05:19:29;47.55;;;21.40;;
54464;SDS011;40374;49.480;20.016;2022-11-18T05:21:56;54.30;;;22.10;;
54464;SDS011;40374;49.480;20.016;2022-11-18T05:24:24;48.15;;;21.27;;
54464;SDS011;40374;49.480;20.016;2022-11-18T05:26:52;46.42;;;20.63;;
54464;SDS011;40374;49.480;20.016;2022-11-18T05:29:21;46.92;;;21.00;;
54464;SDS011;40374;49.480;20.016;2022-11-18T05:31:49;51.83;;;23.00;;
54464;SDS011;40374;49.480;20.016;2022-11-18T05:34:16;47.15;;;22.13;;
54464;SDS011;40374;49.480;20.016;2022-11-18T05:36:44;55.03;;;23.50;;
54464;SDS011;40374;49.480;20.016;2022-11-18T05:39:12;51.92;;;24.42;;
54464;SDS011;40374;49.480;20.016;2022-11-18T05:41:42;51.67;;;25.13;;
54464;SDS011;40374;49.480;20.016;2022-11-18T05:44:28;55.55;;;25.38;;
54464;SDS011;40374;49.480;20.016;2022-11-18T05:46:55;59.25;;;27.73;;
54464;SDS011;40374;49.480;20.016;2022-11-18T05:49:23;71.57;;;27.65;;
54464;SDS011;40374;49.480;20.016;2022-11-18T05:51:50;72.28;;;31.27;;
54464;SDS011;40374;49.480;20.016;2022-11-18T05:54:18;64.65;;;28.65;;
54464;SDS011;40374;49.480;20.016;2022-11-18T05:56:46;73.35;;;34.92;;
54464;SDS011;40374;49.480;20.016;2022-11-18T05:59:14;84.68;;;35.35;;
54464;SDS011;40374;49.480;20.016;2022-11-18T06:01:44;80.22;;;33.63;;
54464;SDS011;40374;49.480;20.016;2022-11-18T06:04:25;78.80;;;32.63;;
54464;SDS011;40374;49.480;20.016;2022-11-18T06:06:55;78.75;;;32.55;;
54464;SDS011;40374;49.480;20.016;2022-11-18T06:09:29;78.43;;;32.83;;
54464;SDS011;40374;49.480;20.016;2022-11-18T06:12:00;59.85;;;26.55;;
54464;SDS011;40374;49.480;20.016;2022-11-18T06:15:05;67.57;;;25.63;;
54464;SDS011;40374;49.480;20.016;2022-11-18T06:17:33;67.55;;;24.50;;
54464;SDS011;40374;49.480;20.016;2022-11-18T06:20:08;76.65;;;30.70;;
54464;SDS011;40374;49.480;20.016;2022-11-18T06:22:36;78.90;;;31.38;;
54464;SDS011;40374;49.480;20.016;2022-11-18T06:25:10;93.45;;;39.15;;
54464;SDS011;40374;49.480;20.016;2022-11-18T06:27:38;145.45;;;54.45;;
54464;SDS011;40374;49.480;20.016;2022-11-18T06:30:06;144.77;;;59.72;;
54464;SDS011;40374;49.480;20.016;2022-11-18T06:32:33;124.70;;;47.40;;
54464;SDS011;40374;49.480;20.016;2022-11-18T06:35:01;100.55;;;41.22;;
54464;SDS011;40374;49.480;20.016;2022-11-18T06:37:28;76.43;;;33.85;;
54464;SDS011;40374;49.480;20.016;2022-11-18T06:42:36;61.45;;;28.33;;
54464;SDS011;40374;49.480;20.016;2022-11-18T06:45:22;71.95;;;29.10;;
54464;SDS011;40374;49.480;20.016;2022-11-18T06:47:50;65.93;;;28.45;;
54464;SDS011;40374;49.480;20.016;2022-11-18T06:50:17;79.63;;;32.15;;
54464;SDS011;40374;49.480;20.016;2022-11-18T06:52:44;77.03;;;34.53;;
54464;SDS011;40374;49.480;20.016;2022-11-18T06:55:12;68.20;;;30.23;;
54464;SDS011;40374;49.480;20.016;2022-11-18T06:57:39;67.90;;;30.02;;
54464;SDS011;40374;49.480;20.016;2022-11-18T07:00:07;65.57;;;28.10;;
54464;SDS011;40374;49.480;20.016;2022-11-18T07:02:35;60.15;;;27.75;;
54464;SDS011;40374;49.480;20.016;2022-11-18T07:05:03;60.50;;;26.88;;
54464;SDS011;40374;49.480;20.016;2022-11-18T07:07:33;56.58;;;24.42;;
54464;SDS011;40374;49.480;20.016;2022-11-18T07:10:08;58.95;;;27.38;;
54464;SDS011;40374;49.480;20.016;2022-11-18T07:12:35;66.38;;;30.23;;
54464;SDS011;40374;49.480;20.016;2022-11-18T07:15:03;88.90;;;35.20;;
54464;SDS011;40374;49.480;20.016;2022-11-18T07:17:31;99.05;;;37.78;;
54464;SDS011;40374;49.480;20.016;2022-11-18T07:19:59;56.28;;;25.42;;
54464;SDS011;40374;49.480;20.016;2022-11-18T07:22:26;57.10;;;24.80;;
54464;SDS011;40374;49.480;20.016;2022-11-18T07:24:53;46.78;;;20.75;;
54464;SDS011;40374;49.480;20.016;2022-11-18T07:27:21;40.97;;;21.88;;
54464;SDS011;40374;49.480;20.016;2022-11-18T07:29:48;56.65;;;25.02;;
54464;SDS011;40374;49.480;20.016;2022-11-18T07:32:15;63.03;;;27.33;;
54464;SDS011;40374;49.480;20.016;2022-11-18T07:34:43;57.50;;;25.80;;
54464;SDS011;40374;49.480;20.016;2022-11-18T07:37:11;65.40;;;26.77;;
54464;SDS011;40374;49.480;20.016;2022-11-18T07:39:39;57.92;;;28.02;;
54464;SDS011;40374;49.480;20.016;2022-11-18T07:42:07;72.40;;;30.90;;
54464;SDS011;40374;49.480;20.016;2022-11-18T07:44:35;117.35;;;47.08;;
54464;SDS011;40374;49.480;20.016;2022-11-18T07:47:02;118.65;;;42.22;;
54464;SDS011;40374;49.480;20.016;2022-11-18T07:49:30;101.15;;;43.45;;
54464;SDS011;40374;49.480;20.016;2022-11-18T07:51:58;106.13;;;41.53;;
54464;SDS011;40374;49.480;20.016;2022-11-18T07:54:25;65.78;;;25.00;;
54464;SDS011;40374;49.480;20.016;2022-11-18T07:56:52;67.85;;;24.17;;
54464;SDS011;40374;49.480;20.016;2022-11-18T07:59:20;53.78;;;21.38;;
54464;SDS011;40374;49.480;20.016;2022-11-18T08:01:47;60.75;;;24.23;;
54464;SDS011;40374;49.480;20.016;2022-11-18T08:04:15;47.15;;;20.30;;
54464;SDS011;40374;49.480;20.016;2022-11-18T08:06:43;53.53;;;22.17;;
54464;SDS011;40374;49.480;20.016;2022-11-18T08:09:11;67.95;;;27.73;;
54464;SDS011;40374;49.480;20.016;2022-11-18T08:11:38;67.00;;;26.98;;
54464;SDS011;40374;49.480;20.016;2022-11-18T08:14:07;45.42;;;23.20;;
54464;SDS011;40374;49.480;20.016;2022-11-18T08:16:34;50.58;;;22.35;;
54464;SDS011;40374;49.480;20.016;2022-11-18T08:19:02;108.00;;;35.53;;
54464;SDS011;40374;49.480;20.016;2022-11-18T08:21:29;102.13;;;35.47;;
54464;SDS011;40374;49.480;20.016;2022-11-18T08:23:57;82.55;;;31.13;;
54464;SDS011;40374;49.480;20.016;2022-11-18T08:26:25;77.38;;;33.88;;
54464;SDS011;40374;49.480;20.016;2022-11-18T08:28:54;59.13;;;27.55;;
54464;SDS011;40374;49.480;20.016;2022-11-18T08:31:22;40.40;;;20.00;;
54464;SDS011;40374;49.480;20.016;2022-11-18T08:33:56;26.15;;;14.07;;
54464;SDS011;40374;49.480;20.016;2022-11-18T08:36:26;21.65;;;12.25;;
54464;SDS011;40374;49.480;20.016;2022-11-18T08:38:56;20.80;;;11.65;;
54464;SDS011;40374;49.480;20.016;2022-11-18T08:41:35;25.00;;;12.05;;
54464;SDS011;40374;49.480;20.016;2022-11-18T08:44:05;19.88;;;11.15;;
54464;SDS011;40374;49.480;20.016;2022-11-18T08:46:33;20.67;;;10.57;;
54464;SDS011;40374;49.480;20.016;2022-11-18T08:49:01;28.88;;;14.00;;
54464;SDS011;40374;49.480;20.016;2022-11-18T08:51:29;25.65;;;12.40;;
54464;SDS011;40374;49.480;20.016;2022-11-18T08:53:57;19.75;;;10.48;;
54464;SDS011;40374;49.480;20.016;2022-11-18T08:56:24;20.60;;;11.00;;
54464;SDS011;40374;49.480;20.016;2022-11-18T08:58:52;25.80;;;13.43;;
54464;SDS011;40374;49.480;20.016;2022-11-18T09:01:20;29.48;;;13.88;;
54464;SDS011;40374;49.480;20.016;2022-11-18T09:03:48;26.13;;;12.27;;
54464;SDS011;40374;49.480;20.016;2022-11-18T09:06:19;28.92;;;11.85;;
54464;SDS011;40374;49.480;20.016;2022-11-18T09:08:50;18.05;;;10.52;;
54464;SDS011;40374;49.480;20.016;2022-11-18T09:11:21;15.15;;;8.02;;
54464;SDS011;40374;49.480;20.016;2022-11-18T09:13:54;15.45;;;8.82;;
54464;SDS011;40374;49.480;20.016;2022-11-18T09:16:45;26.83;;;13.57;;
54464;SDS011;40374;49.480;20.016;2022-11-18T09:19:13;24.65;;;12.38;;
54464;SDS011;40374;49.480;20.016;2022-11-18T09:22:02;14.75;;;7.55;;
54464;SDS011;40374;49.480;20.016;2022-11-18T09:24:30;16.67;;;8.95;;
54464;SDS011;40374;49.480;20.016;2022-11-18T09:26:58;13.50;;;8.07;;
54464;SDS011;40374;49.480;20.016;2022-11-18T09:29:25;13.52;;;6.68;;
54464;SDS011;40374;49.480;20.016;2022-11-18T09:31:53;15.13;;;7.75;;
54464;SDS011;40374;49.480;20.016;2022-11-18T09:34:21;14.40;;;8.60;;
54464;SDS011;40374;49.480;20.016;2022-11-18T09:36:49;21.42;;;10.93;;
54464;SDS011;40374;49.480;20.016;2022-11-18T09:39:17;17.30;;;8.45;;
54464;SDS011;40374;49.480;20.016;2022-11-18T09:41:52;12.15;;;7.68;;
54464;SDS011;40374;49.480;20.016;2022-11-18T09:44:40;11.35;;;6.20;;
54464;SDS011;40374;49.480;20.016;2022-11-18T09:50:02;14.77;;;7.78;;
54464;SDS011;40374;49.480;20.016;2022-11-18T09:53:14;14.20;;;7.75;;
54464;SDS011;40374;49.480;20.016;2022-11-18T09:55:49;111.50;;;26.48;;
54464;SDS011;40374;49.480;20.016;2022-11-18T09:58:20;235.90;;;56.35;;
54464;SDS011;40374;49.480;20.016;2022-11-18T10:00:55;120.20;;;31.38;;
54464;SDS011;40374;49.480;20.016;2022-11-18T10:03:27;38.53;;;12.57;;
54464;SDS011;40374;49.480;20.016;2022-11-18T10:08:27;16.55;;;9.23;;
54464;SDS011;40374;49.480;20.016;2022-11-18T10:11:19;76.40;;;25.15;;
54464;SDS011;40374;49.480;20.016;2022-11-18T10:19:38;20.38;;;8.65;;
54464;SDS011;40374;49.480;20.016;2022-11-18T10:22:25;15.43;;;9.30;;
54464;SDS011;40374;49.480;20.016;2022-11-18T10:24:57;16.15;;;9.80;;
54464;SDS011;40374;49.480;20.016;2022-11-18T10:27:33;12.02;;;6.82;;
54464;SDS011;40374;49.480;20.016;2022-11-18T10:30:15;16.20;;;9.85;;
54464;SDS011;40374;49.480;20.016;2022-11-18T10:32:57;21.73;;;13.18;;
54464;SDS011;40374;49.480;20.016;2022-11-18T10:35:30;18.33;;;9.05;;
54464;SDS011;40374;49.480;20.016;2022-11-18T10:38:01;12.75;;;7.25;;
54464;SDS011;40374;49.480;20.016;2022-11-18T10:40:36;24.70;;;9.57;;
54464;SDS011;40374;49.480;20.016;2022-11-18T10:43:09;20.08;;;9.80;;
54464;SDS011;40374;49.480;20.016;2022-11-18T10:45:37;29.48;;;14.13;;
54464;SDS011;40374;49.480;20.016;2022-11-18T10:48:12;30.08;;;16.42;;
54464;SDS011;40374;49.480;20.016;2022-11-18T10:50:45;23.63;;;10.65;;
54464;SDS011;40374;49.480;20.016;2022-11-18T10:53:28;27.00;;;10.73;;
54464;SDS011;40374;49.480;20.016;2022-11-18T10:56:04;25.00;;;12.13;;
54464;SDS011;40374;49.480;20.016;2022-11-18T10:58:55;23.17;;;11.55;;
54464;SDS011;40374;49.480;20.016;2022-11-18T11:01:26;33.35;;;15.02;;
54464;SDS011;40374;49.480;20.016;2022-11-18T11:06:46;29.58;;;12.48;;
54464;SDS011;40374;49.480;20.016;2022-11-18T11:09:25;35.22;;;14.70;;
54464;SDS011;40374;49.480;20.016;2022-11-18T11:11:59;114.75;;;53.35;;
54464;SDS011;40374;49.480;20.016;2022-11-18T11:14:52;91.53;;;41.92;;
54464;SDS011;40374;49.480;20.016;2022-11-18T11:17:26;72.80;;;32.28;;
54464;SDS011;40374;49.480;20.016;2022-11-18T11:20:20;48.28;;;17.30;;
54464;SDS011;40374;49.480;20.016;2022-11-18T11:25:22;48.15;;;18.88;;
54464;SDS011;40374;49.480;20.016;2022-11-18T11:34:17;32.55;;;13.18;;
54464;SDS011;40374;49.480;20.016;2022-11-18T11:37:03;40.75;;;16.05;;
54464;SDS011;40374;49.480;20.016;2022-11-18T11:42:43;37.85;;;14.07;;
54464;SDS011;40374;49.480;20.016;2022-11-18T11:51:00;23.40;;;10.68;;
54464;SDS011;40374;49.480;20.016;2022-11-18T11:56:34;20.33;;;9.35;;
54464;SDS011;40374;49.480;20.016;2022-11-18T11:59:27;115.97;;;41.28;;
54464;SDS011;40374;49.480;20.016;2022-11-18T12:07:57;27.95;;;12.65;;
54464;SDS011;40374;49.480;20.016;2022-11-18T12:10:48;19.23;;;8.60;;
54464;SDS011;40374;49.480;20.016;2022-11-18T12:19:38;20.48;;;10.77;;
54464;SDS011;40374;49.480;20.016;2022-11-18T12:22:06;21.30;;;11.27;;
54464;SDS011;40374;49.480;20.016;2022-11-18T12:27:09;24.10;;;11.95;;
54464;SDS011;40374;49.480;20.016;2022-11-18T12:29:56;29.23;;;13.02;;
54464;SDS011;40374;49.480;20.016;2022-11-18T12:32:30;24.33;;;13.15;;
54464;SDS011;40374;49.480;20.016;2022-11-18T12:40:29;34.63;;;15.07;;
54464;SDS011;40374;49.480;20.016;2022-11-18T12:42:57;83.00;;;28.70;;
54464;SDS011;40374;49.480;20.016;2022-11-18T12:53:43;51.88;;;19.63;;
54464;SDS011;40374;49.480;20.016;2022-11-18T12:56:21;35.60;;;15.10;;
54464;SDS011;40374;49.480;20.016;2022-11-18T12:58:51;61.60;;;23.65;;
54464;SDS011;40374;49.480;20.016;2022-11-18T13:04:10;108.55;;;36.05;;
54464;SDS011;40374;49.480;20.016;2022-11-18T13:06:41;49.05;;;20.40;;
54464;SDS011;40374;49.480;20.016;2022-11-18T13:09:23;117.03;;;42.00;;
54464;SDS011;40374;49.480;20.016;2022-11-18T13:11:54;107.20;;;37.20;;
54464;SDS011;40374;49.480;20.016;2022-11-18T13:14:29;85.40;;;31.85;;
54464;SDS011;40374;49.480;20.016;2022-11-18T13:20:22;48.03;;;19.20;;
54464;SDS011;40374;49.480;20.016;2022-11-18T13:23:00;26.40;;;13.02;;
54464;SDS011;40374;49.480;20.016;2022-11-18T13:25:47;23.42;;;12.90;;
54464;SDS011;40374;49.480;20.016;2022-11-18T13:28:24;21.08;;;11.27;;
54464;SDS011;40374;49.480;20.016;2022-11-18T13:31:04;42.53;;;15.68;;
54464;SDS011;40374;49.480;20.016;2022-11-18T13:33:41;58.97;;;21.02;;
54464;SDS011;40374;49.480;20.016;2022-11-18T13:36:23;54.22;;;22.10;;
54464;SDS011;40374;49.480;20.016;2022-11-18T13:41:24;81.68;;;29.92;;
54464;SDS011;40374;49.480;20.016;2022-11-18T13:44:10;175.90;;;55.75;;
54464;SDS011;40374;49.480;20.016;2022-11-18T13:46:55;81.35;;;32.60;;
54464;SDS011;40374;49.480;20.016;2022-11-18T13:49:44;32.53;;;15.07;;
54464;SDS011;40374;49.480;20.016;2022-11-18T13:52:21;35.83;;;13.18;;
54464;SDS011;40374;49.480;20.016;2022-11-18T13:54:56;25.52;;;12.02;;
54464;SDS011;40374;49.480;20.016;2022-11-18T13:57:28;21.80;;;10.88;;
54464;SDS011;40374;49.480;20.016;2022-11-18T13:59:59;44.90;;;19.25;;
54464;SDS011;40374;49.480;20.016;2022-11-18T14:02:36;48.00;;;20.88;;
54464;SDS011;40374;49.480;20.016;2022-11-18T14:05:14;38.47;;;15.30;;
54464;SDS011;40374;49.480;20.016;2022-11-18T14:08:01;37.70;;;16.40;;
54464;SDS011;40374;49.480;20.016;2022-11-18T14:10:42;33.67;;;16.45;;
54464;SDS011;40374;49.480;20.016;2022-11-18T14:13:25;29.08;;;16.30;;
54464;SDS011;40374;49.480;20.016;2022-11-18T14:15:59;30.77;;;15.85;;
54464;SDS011;40374;49.480;20.016;2022-11-18T14:18:30;46.83;;;20.95;;
54464;SDS011;40374;49.480;20.016;2022-11-18T14:21:04;35.00;;;15.02;;
54464;SDS011;40374;49.480;20.016;2022-11-18T14:23:33;48.15;;;21.88;;
54464;SDS011;40374;49.480;20.016;2022-11-18T14:26:04;58.58;;;25.33;;
54464;SDS011;40374;49.480;20.016;2022-11-18T14:28:33;46.78;;;19.33;;
54464;SDS011;40374;49.480;20.016;2022-11-18T14:31:23;38.10;;;19.73;;
54464;SDS011;40374;49.480;20.016;2022-11-18T14:34:03;37.20;;;14.85;;
54464;SDS011;40374;49.480;20.016;2022-11-18T14:36:46;67.32;;;23.08;;
54464;SDS011;40374;49.480;20.016;2022-11-18T14:41:55;39.53;;;16.00;;
54464;SDS011;40374;49.480;20.016;2022-11-18T14:44:25;29.25;;;13.98;;
54464;SDS011;40374;49.480;20.016;2022-11-18T14:46:55;36.97;;;16.42;;
54464;SDS011;40374;49.480;20.016;2022-11-18T14:49:26;41.22;;;17.13;;
54464;SDS011;40374;49.480;20.016;2022-11-18T14:51:56;38.80;;;16.45;;
54464;SDS011;40374;49.480;20.016;2022-11-18T14:54:25;37.33;;;17.52;;
54464;SDS011;40374;49.480;20.016;2022-11-18T14:56:58;38.17;;;18.60;;
54464;SDS011;40374;49.480;20.016;2022-11-18T14:59:27;43.10;;;19.45;;
54464;SDS011;40374;49.480;20.016;2022-11-18T15:01:55;61.78;;;29.98;;
54464;SDS011;40374;49.480;20.016;2022-11-18T15:04:25;54.83;;;24.40;;
54464;SDS011;40374;49.480;20.016;2022-11-18T15:06:52;24.35;;;11.25;;
54464;SDS011;40374;49.480;20.016;2022-11-18T15:09:20;16.42;;;8.20;;
54464;SDS011;40374;49.480;20.016;2022-11-18T15:11:48;14.65;;;7.85;;
54464;SDS011;40374;49.480;20.016;2022-11-18T15:14:17;19.10;;;9.27;;
54464;SDS011;40374;49.480;20.016;2022-11-18T15:16:47;25.48;;;12.70;;
54464;SDS011;40374;49.480;20.016;2022-11-18T15:19:15;34.28;;;15.88;;
54464;SDS011;40374;49.480;20.016;2022-11-18T15:21:42;41.95;;;18.45;;
54464;SDS011;40374;49.480;20.016;2022-11-18T15:24:11;21.20;;;10.50;;
54464;SDS011;40374;49.480;20.016;2022-11-18T15:26:40;8.18;;;5.30;;
54464;SDS011;40374;49.480;20.016;2022-11-18T15:29:22;9.52;;;5.15;;
54464;SDS011;40374;49.480;20.016;2022-11-18T15:31:51;11.85;;;5.50;;
54464;SDS011;40374;49.480;20.016;2022-11-18T15:34:18;10.43;;;5.30;;
54464;SDS011;40374;49.480;20.016;2022-11-18T15:36:47;9.93;;;5.20;;
54464;SDS011;40374;49.480;20.016;2022-11-18T15:39:16;10.13;;;5.43;;
54464;SDS011;40374;49.480;20.016;2022-11-18T15:41:44;13.23;;;5.63;;
54464;SDS011;40374;49.480;20.016;2022-11-18T15:44:11;10.88;;;6.00;;
54464;SDS011;40374;49.480;20.016;2022-11-18T15:46:39;11.05;;;6.18;;
54464;SDS011;40374;49.480;20.016;2022-11-18T15:49:09;12.88;;;6.18;;
54464;SDS011;40374;49.480;20.016;2022-11-18T15:51:40;13.77;;;7.18;;
54464;SDS011;40374;49.480;20.016;2022-11-18T15:54:08;21.40;;;8.45;;
54464;SDS011;40374;49.480;20.016;2022-11-18T15:56:36;30.90;;;12.23;;
54464;SDS011;40374;49.480;20.016;2022-11-18T15:59:07;26.40;;;11.18;;
54464;SDS011;40374;49.480;20.016;2022-11-18T16:01:37;21.52;;;9.27;;
54464;SDS011;40374;49.480;20.016;2022-11-18T16:04:11;27.40;;;11.23;;
54464;SDS011;40374;49.480;20.016;2022-11-18T16:06:40;25.60;;;10.93;;
54464;SDS011;40374;49.480;20.016;2022-11-18T16:09:12;25.48;;;11.07;;
54464;SDS011;40374;49.480;20.016;2022-11-18T16:11:41;29.40;;;12.82;;
54464;SDS011;40374;49.480;20.016;2022-11-18T16:14:28;32.72;;;13.52;;
54464;SDS011;40374;49.480;20.016;2022-11-18T16:16:55;35.50;;;12.73;;
54464;SDS011;40374;49.480;20.016;2022-11-18T16:19:24;29.13;;;12.85;;
54464;SDS011;40374;49.480;20.016;2022-11-18T16:21:53;35.70;;;14.20;;
54464;SDS011;40374;49.480;20.016;2022-11-18T16:24:24;29.58;;;12.73;;
54464;SDS011;40374;49.480;20.016;2022-11-18T16:26:53;36.67;;;14.68;;